Time;durP1;ratioP1;P1;durP2;ratioP2;P2;SDS_P1;SDS_P2;PMS_P1;PMS_P2;Temp;Humidity;BMP_temperature;BMP_pressure;BME280_temperature;BME280_humidity;BME280_pressure;Samples;Min_cycle;Max_cycle;Signal;HPM_P1;HPM_P2
2022/10/18 00:00:31;;;;;;;;;;;;;;;11.59;100.00;102485.50;5023677;28;21250;-73
2022/10/18 00:02:56;;;;;;;;;;;;;;;11.58;100.00;102502.31;5024664;28;19929;-73
2022/10/18 00:05:22;;;;;;;;;;;;;;;11.58;100.00;102508.50;5007730;28;19952;-73
2022/10/18 00:07:47;;;;;;;;;;;;;;;11.58;100.00;102502.31;5029175;28;19925;-74
2022/10/18 00:10:12;;;;;;;;;;;;;;;11.58;100.00;102497.91;5026709;28;20002;-73
2022/10/18 00:12:40;;;;;;;;;;;;;;;11.59;100.00;102494.31;5028607;28;20492;-73
2022/10/18 00:15:06;;;;;;;;;;;;;;;11.60;100.00;102495.22;5028793;28;19939;-73
2022/10/18 00:17:33;;;;;;;;;;;;;;;11.61;100.00;102487.19;5024642;28;19928;-73
2022/10/18 00:19:58;;;;;;;;;;;;;;;11.61;100.00;102494.31;5024126;28;19958;-73
2022/10/18 00:22:24;;;;;;;;;;;;;;;11.58;100.00;102497.00;5027043;28;20007;-73
2022/10/18 00:24:49;;;;;;;;;;;;;;;11.57;100.00;102489.97;5026642;28;19933;-73
2022/10/18 00:27:15;;;;;;;;;;;;;;;11.54;100.00;102490.91;5028839;28;20668;-73
2022/10/18 00:29:40;;;;;;;;;;;;;;;11.53;100.00;102500.66;5040772;28;20009;-73
2022/10/18 00:32:06;;;;;;;;;;;;;;;11.51;100.00;102493.63;5026069;28;19933;-74
2022/10/18 00:34:31;;;;;;;;;;;;;;;11.51;100.00;102491.84;5028164;28;21004;-74
2022/10/18 00:36:56;;;;;;;;;;;;;;;11.51;100.00;102496.28;5043558;28;20514;-73
2022/10/18 00:39:22;;;;;;;;;;;;;;;11.50;100.00;102490.09;5024907;28;20581;-73
2022/10/18 00:41:48;;;;;;;;;;;;;;;11.51;100.00;102496.28;5023092;28;21015;-73
2022/10/18 00:44:13;;;;;;;;;;;;;;;11.52;100.00;102501.56;5020952;28;19929;-73
2022/10/18 00:46:43;;;;;;;;;;;;;;;11.51;100.00;102502.44;5027156;28;19987;-73
2022/10/18 00:49:10;;;;;;;;;;;;;;;11.50;100.00;102499.84;5043112;28;19960;-73
2022/10/18 00:51:41;;;;;;;;;;;;;;;11.49;100.00;102504.28;5023324;28;20092;-73
2022/10/18 00:54:06;;;;;;;;;;;;;;;11.49;100.00;102498.97;5028774;28;19920;-73
2022/10/18 00:56:32;;;;;;;;;;;;;;;11.49;100.00;102504.28;5028794;28;20485;-73
2022/10/18 00:59:00;;;;;;;;;;;;;;;11.49;100.00;102493.66;5023421;28;20616;-73
2022/10/18 01:01:25;;;;;;;;;;;;;;;11.50;100.00;102490.09;5023837;28;19948;-73
2022/10/18 01:03:51;;;;;;;;;;;;;;;11.50;100.00;102505.16;5008265;28;19961;-74
2022/10/18 01:06:16;;;;;;;;;;;;;;;11.51;100.00;102502.44;5027354;28;19939;-74
2022/10/18 01:08:41;;;;;;;;;;;;;;;11.53;100.00;102499.78;5028122;28;19928;-73
2022/10/18 01:11:07;;;;;;;;;;;;;;;11.54;100.00;102505.03;5025930;28;19925;-73
2022/10/18 01:13:44;;;;;;;;;;;;;;;11.53;100.00;102513.03;5024826;28;19925;-73
2022/10/18 01:16:13;;;;;;;;;;;;;;;11.51;100.00;102507.75;5025544;28;20248;-72
2022/10/18 01:18:38;;;;;;;;;;;;;;;11.52;100.00;102509.53;5028194;28;19925;-72
2022/10/18 01:21:12;;;;;;;;;;;;;;;11.52;100.00;102514.84;5024995;28;20378;-73
2022/10/18 01:23:40;;;;;;;;;;;;;;;11.52;100.00;102508.63;5026273;28;19932;-72
2022/10/18 01:26:24;;;;;;;;;;;;;;;11.51;100.00;102514.84;5027269;28;19928;-73
2022/10/18 01:28:58;;;;;;;;;;;;;;;11.50;100.00;102506.00;5040375;28;19968;-73
2022/10/18 01:31:41;;;;;;;;;;;;;;;11.53;100.00;102510.38;5024984;28;20032;-74
2022/10/18 01:34:07;;;;;;;;;;;;;;;11.52;100.00;102512.19;5043891;28;20047;-73
2022/10/18 01:36:33;;;;;;;;;;;;;;;11.49;100.00;102504.28;5043194;28;19976;-73
2022/10/18 01:39:00;;;;;;;;;;;;;;;11.47;100.00;102502.56;5022495;28;20418;-74
2022/10/18 01:41:25;;;;;;;;;;;;;;;11.45;100.00;102510.56;5019962;28;19925;-73
2022/10/18 01:43:51;;;;;;;;;;;;;;;11.43;100.00;102503.56;5021006;28;19925;-73
2022/10/18 01:46:18;;;;;;;;;;;;;;;11.39;100.00;102500.97;5019903;28;19928;-72
2022/10/18 01:48:43;;;;;;;;;;;;;;;11.36;100.00;102506.34;5045874;28;19928;-73
2022/10/18 01:51:08;;;;;;;;;;;;;;;11.34;100.00;102504.63;5025458;28;19932;-73
2022/10/18 01:53:34;;;;;;;;;;;;;;;11.31;100.00;102502.03;5025449;28;19969;-73
2022/10/18 01:55:59;;;;;;;;;;;;;;;11.29;100.00;102502.09;5027159;28;19925;-73
2022/10/18 01:58:27;;;;;;;;;;;;;;;11.26;100.00;102500.38;5028851;28;19932;-73
2022/10/18 02:01:00;;;;;;;;;;;;;;;11.27;100.00;102512.72;5021536;28;19929;-73
2022/10/18 02:03:25;;;;;;;;;;;;;;;11.27;100.00;102514.47;5042178;28;20155;-73
2022/10/18 02:05:53;;;;;;;;;;;;;;;11.25;100.00;102511.00;5022357;28;20079;-73
2022/10/18 02:08:18;;;;;;;;;;;;;;;11.23;100.00;102505.72;5018581;28;19929;-74
2022/10/18 02:11:02;;;;;;;;;;;;;;;11.24;100.00;102507.47;5027025;28;20391;-74
2022/10/18 02:13:50;;;;;;;;;;;;;;;11.23;100.00;102497.78;5021858;28;19924;-73
2022/10/18 02:16:18;;;;;;;;;;;;;;;11.20;100.00;102489.91;5022508;28;20019;-74
2022/10/18 02:18:45;;;;;;;;;;;;;;;11.19;100.00;102495.22;5020640;28;19935;-74
2022/10/18 02:21:11;;;;;;;;;;;;;;;11.16;100.00;102500.59;5026061;28;20376;-74
2022/10/18 02:23:37;;;;;;;;;;;;;;;11.15;100.00;102505.03;5020214;28;20000;-74
2022/10/18 02:26:02;;;;;;;;;;;;;;;11.11;100.00;102508.66;5027641;28;20502;-74
2022/10/18 02:28:28;;;;;;;;;;;;;;;11.07;100.00;102501.66;5024888;28;19939;-74
2022/10/18 02:30:58;;;;;;;;;;;;;;;11.03;100.00;102510.56;5021546;28;20126;-74
2022/10/18 02:33:31;;;;;;;;;;;;;;;10.99;100.00;102509.75;5023290;28;19932;-74
2022/10/18 02:35:58;;;;;;;;;;;;;;;10.96;100.00;102509.84;5025933;28;19948;-75
2022/10/18 02:38:24;;;;;;;;;;;;;;;10.94;100.00;102509.88;5023046;28;19994;-74
2022/10/18 02:40:49;;;;;;;;;;;;;;;10.92;100.00;102505.50;5004861;28;20596;-74
2022/10/18 02:43:15;;;;;;;;;;;;;;;10.89;100.00;102514.38;5020407;28;20253;-74
2022/10/18 02:45:40;;;;;;;;;;;;;;;10.86;100.00;102520.59;5026293;28;19940;-74
2022/10/18 02:48:05;;;;;;;;;;;;;;;10.84;100.00;102516.28;5020996;28;19929;-73
2022/10/18 02:50:31;;;;;;;;;;;;;;;10.79;100.00;102513.69;5021126;28;19936;-74
2022/10/18 02:52:56;;;;;;;;;;;;;;;10.78;100.00;102513.75;5028862;28;20356;-73
2022/10/18 02:55:21;;;;;;;;;;;;;;;10.76;100.00;102507.56;5028216;28;20291;-73
2022/10/18 02:57:47;;;;;;;;;;;;;;;10.71;100.00;102505.91;5023709;28;20022;-74
2022/10/18 03:00:12;;;;;;;;;;;;;;;10.68;100.00;102513.03;5024599;28;19943;-74
2022/10/18 03:02:38;;;;;;;;;;;;;;;10.63;100.00;102518.44;5022544;28;20300;-72
2022/10/18 03:05:03;;;;;;;;;;;;;;;10.61;100.00;102519.38;5022770;28;20465;-74
2022/10/18 03:07:29;;;;;;;;;;;;;;;10.56;100.00;102514.13;5024155;28;19933;-74
2022/10/18 03:09:54;;;;;;;;;;;;;;;10.53;100.00;102512.44;5027354;28;19939;-73
2022/10/18 03:12:19;;;;;;;;;;;;;;;10.48;100.00;102516.06;5028136;28;19933;-74
2022/10/18 03:14:45;;;;;;;;;;;;;;;10.45;100.00;102522.28;5027020;28;19939;-73
2022/10/18 03:17:10;;;;;;;;;;;;;;;10.41;100.00;102524.06;5027923;28;20392;-74
2022/10/18 03:19:37;;;;;;;;;;;;;;;10.39;100.00;102523.22;5028155;28;20035;-73
2022/10/18 03:22:03;;;;;;;;;;;;;;;10.35;100.00;102516.22;5026579;28;19935;-73
2022/10/18 03:24:28;;;;;;;;;;;;;;;10.31;100.00;102517.22;5029231;28;20399;-73
2022/10/18 03:26:54;;;;;;;;;;;;;;;10.28;100.00;102517.25;5024691;28;19933;-73
2022/10/18 03:29:19;;;;;;;;;;;;;;;10.26;100.00;102532.28;5026945;28;19971;-73
2022/10/18 03:31:44;;;;;;;;;;;;;;;10.23;100.00;102537.66;5029980;28;20023;-74
2022/10/18 03:34:10;;;;;;;;;;;;;;;10.21;100.00;102539.44;5028318;28;20425;-74
2022/10/18 03:36:37;;;;;;;;;;;;;;;10.16;100.00;102540.41;5027240;28;20380;-74
2022/10/18 03:39:02;;;;;;;;;;;;;;;10.14;100.00;102534.22;5028307;28;19929;-73
2022/10/18 03:41:28;;;;;;;;;;;;;;;10.11;100.00;102518.41;5020689;28;19924;-73
2022/10/18 03:43:53;;;;;;;;;;;;;;;10.07;100.00;102534.38;5022607;28;20431;-74
2022/10/18 03:46:18;;;;;;;;;;;;;;;10.03;100.00;102530.91;5027626;28;20408;-73
2022/10/18 03:48:44;;;;;;;;;;;;;;;10.02;100.00;102542.41;5026009;28;19925;-73
2022/10/18 03:51:12;;;;;;;;;;;;;;;9.99;100.00;102540.66;5026683;28;20506;-74
2022/10/18 03:53:37;;;;;;;;;;;;;;;9.97;100.00;102538.94;5029300;28;20217;-74
2022/10/18 03:56:02;;;;;;;;;;;;;;;9.95;100.00;102543.38;5029775;28;19925;-74
2022/10/18 03:58:28;;;;;;;;;;;;;;;9.92;100.00;102545.16;5028697;28;19935;-73
2022/10/18 04:00:54;;;;;;;;;;;;;;;9.88;100.00;102550.53;5024898;28;20391;-73
2022/10/18 04:03:19;;;;;;;;;;;;;;;9.85;100.00;102567.31;5025625;28;19978;-72
2022/10/18 04:05:45;;;;;;;;;;;;;;;9.82;100.00;102559.44;5030023;28;20007;-74
2022/10/18 04:08:11;;;;;;;;;;;;;;;9.79;100.00;102546.25;5008198;28;20392;-73
2022/10/18 04:10:37;;;;;;;;;;;;;;;9.73;100.00;102541.94;5046414;28;19933;-74
2022/10/18 04:13:03;;;;;;;;;;;;;;;9.70;100.00;102541.97;5028959;28;19939;-73
2022/10/18 04:15:28;;;;;;;;;;;;;;;9.69;100.00;102553.44;5046188;28;20518;-74
2022/10/18 04:17:53;;;;;;;;;;;;;;;9.68;100.00;102569.31;5028345;28;20407;-74
2022/10/18 04:20:19;;;;;;;;;;;;;;;9.67;100.00;102568.47;5029088;28;19987;-74
2022/10/18 04:22:44;;;;;;;;;;;;;;;9.67;100.00;102562.28;5044329;28;19929;-73
2022/10/18 04:25:09;;;;;;;;;;;;;;;9.67;100.00;102549.06;5044056;28;19983;-74
2022/10/18 04:27:35;;;;;;;;;;;;;;;9.65;100.00;102552.63;5026184;28;20165;-74
2022/10/18 04:30:00;;;;;;;;;;;;;;;9.63;100.00;102557.06;5027735;28;19940;-74
2022/10/18 04:32:28;;;;;;;;;;;;;;;9.62;100.00;102550.03;5026059;28;19933;-74
2022/10/18 04:34:53;;;;;;;;;;;;;;;9.61;100.00;102555.34;5028248;28;20124;-73
2022/10/18 04:37:19;;;;;;;;;;;;;;;9.59;100.00;102546.56;5026249;28;20067;-73
2022/10/18 04:39:47;;;;;;;;;;;;;;;9.57;100.00;102545.69;5024789;28;19956;-76
2022/10/18 04:42:12;;;;;;;;;;;;;;;9.58;100.00;102552.75;5026934;28;20314;-74
2022/10/18 04:44:38;;;;;;;;;;;;;;;9.56;100.00;102565.09;5027402;28;19956;-74
2022/10/18 04:47:03;;;;;;;;;;;;;;;9.56;100.00;102570.38;5027405;28;19929;-73
2022/10/18 04:49:28;;;;;;;;;;;;;;;9.56;100.00;102576.56;5027392;28;19999;-74
2022/10/18 04:51:54;;;;;;;;;;;;;;;9.56;100.00;102567.72;5024770;28;19929;-74
2022/10/18 04:54:19;;;;;;;;;;;;;;;9.53;100.00;102566.00;5025657;28;19929;-74
2022/10/18 04:56:44;;;;;;;;;;;;;;;9.50;100.00;102561.63;5025860;28;20402;-73
2022/10/18 04:59:10;;;;;;;;;;;;;;;9.49;100.00;102569.59;5026671;28;20406;-74
2022/10/18 05:01:35;;;;;;;;;;;;;;;9.47;100.00;102569.63;5026560;28;19968;-73
2022/10/18 05:04:01;;;;;;;;;;;;;;;9.46;100.00;102559.94;5026086;28;19935;-74
2022/10/18 05:06:26;;;;;;;;;;;;;;;9.44;100.00;102552.91;5024447;28;20118;-73
2022/10/18 05:08:51;;;;;;;;;;;;;;;9.40;100.00;102567.94;5027139;28;19960;-73
2022/10/18 05:11:17;;;;;;;;;;;;;;;9.39;100.00;102574.13;5026309;28;19987;-73
2022/10/18 05:13:42;;;;;;;;;;;;;;;9.37;100.00;102568.84;5026205;28;19940;-74
2022/10/18 05:16:08;;;;;;;;;;;;;;;9.33;100.00;102566.28;5026409;28;20422;-73
2022/10/18 05:18:33;;;;;;;;;;;;;;;9.29;100.00;102573.38;5022182;28;19936;-73
2022/10/18 05:20:58;;;;;;;;;;;;;;;9.24;100.00;102569.91;5025896;28;19936;-73
2022/10/18 05:23:24;;;;;;;;;;;;;;;9.21;100.00;102557.59;5026285;28;19929;-73
2022/10/18 05:25:49;;;;;;;;;;;;;;;9.18;100.00;102575.25;5043310;28;20035;-74
2022/10/18 05:28:15;;;;;;;;;;;;;;;9.16;100.00;102572.63;5025156;28;20051;-73
2022/10/18 05:30:40;;;;;;;;;;;;;;;9.13;100.00;102563.88;5024054;28;19937;-74
2022/10/18 05:33:06;;;;;;;;;;;;;;;9.07;100.00;102563.06;5021403;28;19937;-73
2022/10/18 05:35:31;;;;;;;;;;;;;;;9.02;100.00;102570.16;5028097;28;20392;-74
2022/10/18 05:37:57;;;;;;;;;;;;;;;8.99;100.00;102571.97;5044452;28;20395;-74
2022/10/18 05:40:22;;;;;;;;;;;;;;;8.93;100.00;102557.94;5027097;28;19994;-74
2022/10/18 05:42:50;;;;;;;;;;;;;;;8.89;100.00;102564.13;5027832;28;20414;-74
2022/10/18 05:45:15;;;;;;;;;;;;;;;8.85;100.00;102546.56;5026646;28;20419;-74
2022/10/18 05:47:41;;;;;;;;;;;;;;;8.85;100.00;102565.06;5027554;28;20051;-74
2022/10/18 05:50:06;;;;;;;;;;;;;;;8.84;100.00;102576.53;5025790;28;20468;-74
2022/10/18 05:52:32;;;;;;;;;;;;;;;8.82;100.00;102573.88;5028034;28;20691;-74
2022/10/18 05:54:57;;;;;;;;;;;;;;;8.80;100.00;102583.59;5023769;28;20713;-74
2022/10/18 05:57:22;;;;;;;;;;;;;;;8.77;100.00;102577.47;5023036;28;20027;-74
2022/10/18 05:59:48;;;;;;;;;;;;;;;8.70;100.00;102584.56;5024501;28;19936;-74
2022/10/18 06:02:13;;;;;;;;;;;;;;;8.64;100.00;102574.06;5020135;28;19936;-75
2022/10/18 06:04:39;;;;;;;;;;;;;;;8.61;100.00;102574.13;5024488;28;20222;-75
2022/10/18 06:07:08;;;;;;;;;;;;;;;8.58;100.00;102571.47;5024949;28;19925;-75
2022/10/18 06:09:33;;;;;;;;;;;;;;;8.54;100.00;102581.19;5023911;28;19929;-75
2022/10/18 06:11:59;;;;;;;;;;;;;;;8.53;100.00;102588.25;5023452;28;19972;-74
2022/10/18 06:14:24;;;;;;;;;;;;;;;8.54;100.00;102597.03;5026039;28;19933;-75
2022/10/18 06:16:49;;;;;;;;;;;;;;;8.55;100.00;102594.38;5025897;28;19933;-75
2022/10/18 06:19:15;;;;;;;;;;;;;;;8.56;100.00;102582.94;5026456;28;20568;-75
2022/10/18 06:21:41;;;;;;;;;;;;;;;8.58;100.00;102582.03;5041489;28;20512;-75
2022/10/18 06:24:07;;;;;;;;;;;;;;;8.58;100.00;102596.13;5024836;28;20426;-75
2022/10/18 06:26:32;;;;;;;;;;;;;;;8.60;100.00;102593.50;5026683;28;19929;-75
2022/10/18 06:28:58;;;;;;;;;;;;;;;8.58;100.00;102595.25;5025185;28;20171;-74
2022/10/18 06:31:23;;;;;;;;;;;;;;;8.58;100.00;102592.59;5023495;28;19928;-74
2022/10/18 06:33:49;;;;;;;;;;;;;;;8.58;100.00;102596.13;5026893;28;19932;-74
2022/10/18 06:36:15;;;;;;;;;;;;;;;8.59;100.00;102602.28;5009470;28;20149;-73
2022/10/18 06:38:41;;;;;;;;;;;;;;;8.60;100.00;102614.59;5004531;28;20886;-74
2022/10/18 06:41:07;;;;;;;;;;;;;;;8.63;100.00;102619.84;5031113;28;19924;-74
2022/10/18 06:43:33;;;;;;;;;;;;;;;8.64;100.00;102621.59;5031980;28;20664;-72
2022/10/18 06:45:59;;;;;;;;;;;;;;;8.67;100.00;102611.03;5043452;28;20027;-74
2022/10/18 06:48:24;;;;;;;;;;;;;;;8.68;100.00;102612.78;5045068;28;19929;-74
2022/10/18 06:50:55;;;;;;;;;;;;;;;8.67;100.00;102634.78;5026580;28;19936;-74
2022/10/18 06:53:21;;;;;;;;;;;;;;;8.66;100.00;102651.53;5024146;28;19929;-74
2022/10/18 06:55:46;;;;;;;;;;;;;;;8.63;100.00;102630.41;5031305;28;19940;-74
2022/10/18 06:58:12;;;;;;;;;;;;;;;8.60;100.00;102630.44;5047646;28;20018;-74
2022/10/18 07:00:38;;;;;;;;;;;;;;;8.59;100.00;102626.03;5047954;28;20350;-74
2022/10/18 07:03:03;;;;;;;;;;;;;;;8.56;100.00;102630.47;5030469;28;20173;-74
2022/10/18 07:05:29;;;;;;;;;;;;;;;8.54;100.00;102634.88;5025119;28;19960;-74
2022/10/18 07:07:55;;;;;;;;;;;;;;;8.56;100.00;102632.25;5026611;28;19925;-76
2022/10/18 07:10:20;;;;;;;;;;;;;;;8.57;100.00;102636.63;5023666;28;20272;-74
2022/10/18 07:12:46;;;;;;;;;;;;;;;8.59;100.00;102640.13;5030491;28;20571;-75
2022/10/18 07:15:14;;;;;;;;;;;;;;;8.64;100.00;102642.72;5028939;28;20658;-75
2022/10/18 07:17:40;;;;;;;;;;;;;;;8.68;100.00;102660.31;5029920;28;20411;-75
2022/10/18 07:20:06;;;;;;;;;;;;;;;8.69;100.00;102662.94;5047431;28;19929;-74
2022/10/18 07:22:32;;;;;;;;;;;;;;;8.73;100.00;102661.16;5029390;28;19933;-73
2022/10/18 07:24:58;;;;;;;;;;;;;;;8.76;100.00;102665.53;5027083;28;20236;-74
2022/10/18 07:27:23;;;;;;;;;;;;;;;8.80;100.00;102665.47;5029552;28;20023;-74
2022/10/18 07:29:49;;;;;;;;;;;;;;;8.86;100.00;102680.38;5030529;28;19987;-74
2022/10/18 07:32:14;;;;;;;;;;;;;;;8.91;100.00;102685.63;5029694;28;19932;-74
2022/10/18 08:04:06;;;;;;;;;;;;;;;9.64;100.00;102703.38;4956266;28;19929;-75
2022/10/18 08:06:31;;;;;;;;;;;;;;;9.70;100.00;102708.59;4950219;28;20649;-75
2022/10/18 08:08:57;;;;;;;;;;;;;;;9.79;100.00;102699.66;4955124;28;20453;-75
2022/10/18 08:11:23;;;;;;;;;;;;;;;9.88;100.00;102694.28;4988469;28;19932;-75
2022/10/18 08:13:51;;;;;;;;;;;;;;;9.97;100.00;102716.22;4967476;28;19961;-75
2022/10/18 08:16:18;;;;;;;;;;;;;;;10.04;100.00;102707.31;4974481;28;19944;-75
2022/10/18 08:18:43;;;;;;;;;;;;;;;10.11;100.00;102711.63;4990965;28;20410;-75
2022/10/18 08:21:09;;;;;;;;;;;;;;;10.16;100.00;102709.78;4968501;28;19929;-75
2022/10/18 08:23:35;;;;;;;;;;;;;;;10.21;100.00;102728.25;4966002;28;20484;-74
2022/10/18 08:26:01;;;;;;;;;;;;;;;10.25;100.00;102708.75;4987360;28;19925;-75
2022/10/18 08:28:26;;;;;;;;;;;;;;;10.29;100.00;102717.53;4965605;28;20034;-75
2022/10/18 08:30:52;;;;;;;;;;;;;;;10.36;100.00;102734.22;4989622;28;19929;-75
2022/10/18 08:33:17;;;;;;;;;;;;;;;10.39;100.00;102727.09;4966668;28;21856;-75
2022/10/18 08:35:43;;;;;;;;;;;;;;;10.49;100.00;102734.94;4967308;28;20163;-75
2022/10/18 08:38:10;;;;;;;;;;;;;;;10.54;100.00;102720.75;4957367;28;19933;-76
2022/10/18 08:40:41;;;;;;;;;;;;;;;10.60;100.00;102727.72;4973238;28;19934;-75
2022/10/18 08:43:36;;;;;;;;;;;;;;;10.64;100.00;102740.03;4971984;28;21561;-75
2022/10/18 08:46:01;;;;;;;;;;;;;;;10.71;100.00;102731.09;4965573;28;19936;-75
2022/10/18 08:48:32;;;;;;;;;;;;;;;10.80;100.00;102727.41;4964649;28;20312;-76
2022/10/18 08:50:57;;;;;;;;;;;;;;;10.88;100.00;102743.16;4990261;28;19932;-75
2022/10/18 08:53:25;;;;;;;;;;;;;;;10.93;100.00;102738.66;4973928;28;19926;-75
2022/10/18 08:55:52;;;;;;;;;;;;;;;11.01;100.00;102733.25;4990583;28;19931;-75
2022/10/18 08:58:20;;;;;;;;;;;;;;;11.05;100.00;102734.94;4967948;28;20052;-76
2022/10/18 09:00:52;;;;;;;;;;;;;;;11.10;100.00;102732.19;4990485;28;19925;-75
2022/10/18 09:03:25;;;;;;;;;;;;;;;11.14;100.00;102749.81;4989052;28;20507;-75
2022/10/18 09:05:55;;;;;;;;;;;;;;;11.18;100.00;102738.25;4969442;28;19929;-75
2022/10/18 09:08:26;;;;;;;;;;;;;;;11.26;100.00;102733.69;4955341;28;20064;-75
2022/10/18 09:11:10;;;;;;;;;;;;;;;11.33;100.00;102741.53;4919297;28;19930;-75
2022/10/18 09:13:45;;;;;;;;;;;;;;;11.39;100.00;102736.13;4972688;28;19973;-75
2022/10/18 09:16:12;;;;;;;;;;;;;;;11.44;100.00;102739.53;4952993;28;19934;-76
2022/10/18 09:18:38;;;;;;;;;;;;;;;11.50;100.00;102744.72;4957933;28;19933;-76
2022/10/18 09:21:18;;;;;;;;;;;;;;;11.58;100.00;102741.06;4966916;28;19929;-75
2022/10/18 09:23:47;;;;;;;;;;;;;;;11.64;100.00;102743.59;4963496;28;19933;-75
2022/10/18 09:26:16;;;;;;;;;;;;;;;11.66;100.00;102739.16;4962941;28;20385;-75
2022/10/18 09:29:01;;;;;;;;;;;;;;;11.71;100.00;102745.22;4960930;28;20339;-77
2022/10/18 09:31:44;;;;;;;;;;;;;;;11.79;100.00;102742.41;4960573;28;19934;-75
2022/10/18 09:34:13;;;;;;;;;;;;;;;11.84;100.00;102739.66;4984662;28;19938;-75
2022/10/18 09:36:38;;;;;;;;;;;;;;;11.92;100.00;102745.69;4986502;28;19929;-76
2022/10/18 09:39:17;;;;;;;;;;;;;;;12.00;100.00;102748.19;4985009;28;20938;-75
2022/10/18 09:41:49;;;;;;;;;;;;;;;12.05;100.00;102757.81;4962706;28;20328;-76
2022/10/18 09:44:17;;;;;;;;;;;;;;;12.12;100.00;102757.69;4982896;28;19926;-76
2022/10/18 09:46:48;;;;;;;;;;;;;;;12.17;100.00;102762.03;4962060;28;20360;-75
2022/10/18 09:49:16;;;;;;;;;;;;;;;12.24;100.00;102762.75;4964232;28;20411;-75
2022/10/18 09:51:44;;;;;;;;;;;;;;;12.32;100.00;102771.41;4962679;28;20116;-75
2022/10/18 09:54:12;;;;;;;;;;;;;;;12.38;100.00;102775.72;4960189;28;19929;-75
2022/10/18 09:56:39;;;;;;;;;;;;;;;12.42;100.00;102780.03;4965392;28;20076;-75
2022/10/18 09:59:04;;;;;;;;;;;;;;;12.45;100.00;102779.09;4964696;28;20071;-75
2022/10/18 10:01:30;;;;;;;;;;;;;;;12.49;100.00;102775.47;4983356;28;20388;-75
2022/10/18 10:03:56;;;;;;;;;;;;;;;12.56;100.00;102777.09;4953158;28;20436;-75
2022/10/18 10:06:30;;;;;;;;;;;;;;;12.61;100.00;102777.88;4965547;28;19929;-74
2022/10/18 10:09:07;;;;;;;;;;;;;;;12.70;100.00;102776.75;4949476;28;19934;-75
2022/10/18 10:11:36;;;;;;;;;;;;;;;12.78;100.00;102771.25;4962941;28;19930;-75
2022/10/18 10:14:13;;;;;;;;;;;;;;;12.87;100.00;102779.00;4985861;28;19940;-75
2022/10/18 10:16:57;;;;;;;;;;;;;;;12.93;100.00;102791.28;4962796;28;19936;-75
2022/10/18 10:19:25;;;;;;;;;;;;;;;12.94;100.00;102790.38;4974942;28;19936;-75
2022/10/18 10:21:52;;;;;;;;;;;;;;;12.93;100.00;102790.41;4975222;28;19929;-74
2022/10/18 10:24:20;;;;;;;;;;;;;;;12.93;100.00;102795.72;4973890;28;19933;-75
2022/10/18 10:26:46;;;;;;;;;;;;;;;12.95;100.00;102791.22;4975770;28;19930;-75
2022/10/18 10:29:30;;;;;;;;;;;;;;;12.99;100.00;102803.56;4960272;28;20541;-75
2022/10/18 10:32:02;;;;;;;;;;;;;;;13.04;100.00;102806.97;4977097;28;19963;-75
2022/10/18 10:34:28;;;;;;;;;;;;;;;13.09;100.00;102804.19;4942033;28;19960;-75
2022/10/18 10:36:53;;;;;;;;;;;;;;;13.13;100.00;102801.41;4963995;28;19940;-75
2022/10/18 10:39:19;;;;;;;;;;;;;;;13.19;100.00;102811.06;4960488;28;19960;-75
2022/10/18 10:42:05;;;;;;;;;;;;;;;13.24;100.00;102818.91;4955289;28;20069;-75
2022/10/18 10:44:31;;;;;;;;;;;;;;;13.26;100.00;102812.63;4975437;28;19934;-75
2022/10/18 10:46:56;;;;;;;;;;;;;;;13.26;100.00;102814.41;4954695;28;20422;-74
2022/10/18 10:49:29;;;;;;;;;;;;;;;13.22;100.00;102818.03;4957146;28;20191;-75
2022/10/18 10:51:58;;;;;;;;;;;;;;;13.20;100.00;102822.53;4981305;28;19926;-76
2022/10/18 10:54:24;;;;;;;;;;;;;;;13.18;100.00;102820.81;4982200;28;19937;-75
2022/10/18 10:56:49;;;;;;;;;;;;;;;13.19;100.00;102819.03;4965297;28;20165;-74
2022/10/18 10:59:18;;;;;;;;;;;;;;;13.24;100.00;102819.75;4983003;28;19930;-75
2022/10/18 11:01:44;;;;;;;;;;;;;;;13.36;100.00;102820.38;4981187;28;20313;-74
2022/10/18 11:04:26;;;;;;;;;;;;;;;13.46;100.00;102829.91;4959858;28;20653;-74
2022/10/18 11:07:10;;;;;;;;;;;;;;;13.54;100.00;102827.03;4982184;28;19925;-74
2022/10/18 11:09:55;;;;;;;;;;;;;;;13.57;100.00;102826.97;4983361;28;19932;-74
2022/10/18 11:12:29;;;;;;;;;;;;;;;13.56;100.00;102825.19;4981800;28;19930;-74
2022/10/18 11:14:56;;;;;;;;;;;;;;;13.53;100.00;102823.50;4983872;28;20285;-73
2022/10/18 11:17:25;;;;;;;;;;;;;;;13.52;100.00;102820.88;4960493;28;20454;-74
2022/10/18 11:20:00;;;;;;;;;;;;;;;13.49;100.00;102828.94;4987769;28;20128;-75
2022/10/18 11:22:26;;;;;;;;;;;;;;;13.49;100.00;102829.81;4990593;28;20471;-75
2022/10/18 11:24:51;;;;;;;;;;;;;;;13.50;100.00;102833.38;4989014;28;19987;-74
2022/10/18 11:27:17;;;;;;;;;;;;;;;13.49;100.00;102837.78;4989807;28;19937;-74
2022/10/18 11:29:48;;;;;;;;;;;;;;;13.51;100.00;102838.63;4970037;28;20459;-74
2022/10/18 11:32:14;;;;;;;;;;;;;;;13.51;100.00;102843.94;4989969;28;19934;-74
2022/10/18 11:34:49;;;;;;;;;;;;;;;13.54;100.00;102835.00;4989438;28;19929;-74
2022/10/18 11:37:14;;;;;;;;;;;;;;;13.62;100.00;102834.81;4974521;28;20234;-74
2022/10/18 11:39:42;;;;;;;;;;;;;;;13.71;100.00;102837.22;4989355;28;20165;-74
2022/10/18 11:42:11;;;;;;;;;;;;;;;13.83;100.00;102836.00;4976829;28;21464;-75
2022/10/18 11:44:49;;;;;;;;;;;;;;;13.91;100.00;102842.00;4992518;28;19930;-76
2022/10/18 11:47:29;;;;;;;;;;;;;;;13.99;100.00;102844.44;4990376;28;19936;-79
2022/10/18 11:49:58;;;;;;;;;;;;;;;14.02;100.00;102843.50;4951322;28;19929;-77
2022/10/18 11:52:42;;;;;;;;;;;;;;;14.00;100.00;102840.84;4991144;28;19983;-81
2022/10/18 11:55:10;;;;;;;;;;;;;;;13.93;100.00;102844.59;4992407;28;19936;-81
2022/10/18 11:57:36;;;;;;;;;;;;;;;13.83;100.00;102844.00;4993166;28;20544;-80
2022/10/18 12:00:14;;;;;;;;;;;;;;;13.80;100.00;102833.44;4992647;28;20339;-81
2022/10/18 12:02:49;;;;;;;;;;;;;;;13.77;100.00;102841.53;4992820;28;19934;-81
2022/10/18 12:05:16;;;;;;;;;;;;;;;13.77;100.00;102829.06;4970598;28;19980;-80
2022/10/18 12:07:51;;;;;;;;;;;;;;;13.77;100.00;102834.41;4958781;28;20975;-81
2022/10/18 12:10:16;;;;;;;;;;;;;;;13.78;100.00;102835.28;4991400;28;19930;-81
2022/10/18 12:12:49;;;;;;;;;;;;;;;13.84;100.00;102829.78;4967797;28;20392;-82
2022/10/18 12:15:17;;;;;;;;;;;;;;;13.89;100.00;102825.19;4953352;28;19975;-80
2022/10/18 12:17:44;;;;;;;;;;;;;;;13.87;100.00;102831.47;4960510;28;19933;-81
2022/10/18 12:20:12;;;;;;;;;;;;;;;13.82;100.00;102827.16;4974805;28;19926;-80
2022/10/18 12:22:39;;;;;;;;;;;;;;;13.73;100.00;102826.53;4956196;28;21522;-81
2022/10/18 12:25:09;;;;;;;;;;;;;;;13.67;100.00;102838.25;4977085;28;19933;-81
2022/10/18 12:27:36;;;;;;;;;;;;;;;13.59;100.00;102835.78;4977466;28;20011;-84
2022/10/18 12:30:03;;;;;;;;;;;;;;;13.51;100.00;102835.97;4969408;28;19932;-81
2022/10/18 12:32:30;;;;;;;;;;;;;;;13.48;100.00;102833.41;4968979;28;19937;-82
2022/10/18 12:34:57;;;;;;;;;;;;;;;13.47;100.00;102831.66;4986235;28;19930;-82
2022/10/18 12:37:37;;;;;;;;;;;;;;;13.49;100.00;102828.94;4955915;28;19930;-82
2022/10/18 12:40:28;;;;;;;;;;;;;;;13.55;100.00;102828.75;4952592;28;19926;-82
2022/10/18 12:42:54;;;;;;;;;;;;;;;13.59;100.00;102841.09;4965523;28;19972;-82
2022/10/18 12:45:22;;;;;;;;;;;;;;;13.60;100.00;102836.63;4965841;28;20012;-82
2022/10/18 12:47:47;;;;;;;;;;;;;;;13.58;100.00;102839.34;4987049;28;19930;-82
2022/10/18 12:50:28;;;;;;;;;;;;;;;13.54;100.00;102833.25;4966424;28;19936;-81
2022/10/18 12:53:00;;;;;;;;;;;;;;;13.51;100.00;102832.44;4990195;28;20301;-81
2022/10/18 12:55:28;;;;;;;;;;;;;;;13.53;100.00;102830.59;4991576;28;19925;-81
2022/10/18 12:57:53;;;;;;;;;;;;;;;13.56;100.00;102843.81;4967731;28;20750;-79
2022/10/18 13:00:30;;;;;;;;;;;;;;;13.54;100.00;102837.66;4990821;28;19929;-82
2022/10/18 13:03:08;;;;;;;;;;;;;;;13.52;100.00;102835.03;4989460;28;19933;-81